Time,TemperatureF,DewpointF,PressureIn,WindDirection,WindDirectionDegrees,WindSpeedMPH,WindSpeedGustMPH,Humidity,HourlyPrecipIn,Conditions,Clouds,dailyrainin,SoftwareType,DateUTC
2013-10-10 00:15:00,63.3,56.0,30.18,NE,36,2.0,3.0,76,0.00,,,0.00,weatherlink.com 1.10,2013-10-10 04:15:00,
2013-10-10 00:30:00,60.9,55.0,30.18,NNW,345,2.0,4.0,82,0.00,,,0.00,weatherlink.com 1.10,2013-10-10 04:30:00,
2013-10-10 00:45:00,60.6,55.0,30.18,WNW,303,3.0,4.0,83,0.00,,,0.00,weatherlink.com 1.10,2013-10-10 04:45:00,
2013-10-10 01:01:00,60.7,56.0,30.18,NW,316,3.0,4.0,83,0.00,,,0.00,weatherlink.com 1.10,2013-10-10 05:01:00,
2013-10-10 01:16:00,61.6,56.0,30.18,NW,304,3.0,4.0,81,0.00,,,0.00,weatherlink.com 1.10,2013-10-10 05:16:00,
2013-10-10 01:31:00,61.6,55.0,30.17,NW,307,1.0,3.0,80,0.00,,,0.00,weatherlink.com 1.10,2013-10-10 05:31:00,
2013-10-10 01:46:00,61.6,56.0,30.17,NW,325,2.0,2.0,81,0.00,,,0.00,weatherlink.com 1.10,2013-10-10 05:46:00,
2013-10-10 02:01:00,61.1,56.0,30.18,NW,304,3.0,4.0,82,0.00,,,0.00,weatherlink.com 1.10,2013-10-10 06:01:00,
2013-10-10 02:16:00,61.0,56.0,30.18,NW,318,0.0,2.0,82,0.00,,,0.00,weatherlink.com 1.10,2013-10-10 06:16:00,
2013-10-10 02:31:00,60.5,56.0,30.17,WNW,300,4.0,4.0,84,0.00,,,0.00,weatherlink.com 1.10,2013-10-10 06:31:00,
2013-10-10 02:46:00,60.3,56.0,30.17,WNW,294,2.0,4.0,86,0.00,,,0.00,weatherlink.com 1.10,2013-10-10 06:46:00,
2013-10-10 03:01:00,60.1,56.0,30.17,NW,311,0.0,0.0,85,0.00,,,0.00,weatherlink.com 1.10,2013-10-10 07:01:00,
2013-10-10 03:16:00,59.9,56.0,30.17,NE,37,2.0,3.0,86,0.00,,,0.00,weatherlink.com 1.10,2013-10-10 07:16:00,
2013-10-10 03:31:00,58.7,55.0,30.17,NE,34,2.0,4.0,87,0.00,,,0.00,weatherlink.com 1.10,2013-10-10 07:31:00,
2013-10-10 03:46:00,59.2,55.0,30.17,NNE,18,2.0,7.0,85,0.00,,,0.00,weatherlink.com 1.10,2013-10-10 07:46:00,
2013-10-10 04:01:00,59.4,55.0,30.17,ENE,65,2.0,8.0,86,0.00,,,0.00,weatherlink.com 1.10,2013-10-10 08:01:00,
2013-10-10 04:16:00,59.1,56.0,30.17,NE,55,0.0,3.0,88,0.00,,,0.00,weatherlink.com 1.10,2013-10-10 08:16:00,
2013-10-10 04:31:00,58.8,55.0,30.18,NE,37,0.0,3.0,87,0.00,,,0.00,weatherlink.com 1.10,2013-10-10 08:31:00,
2013-10-10 04:46:00,58.3,56.0,30.18,East,94,2.0,3.0,90,0.00,,,0.00,weatherlink.com 1.10,2013-10-10 08:46:00,
2013-10-10 05:01:00,57.6,55.0,30.19,East,95,1.0,4.0,91,0.00,,,0.00,weatherlink.com 1.10,2013-10-10 09:01:00,
2013-10-10 05:16:00,57.1,55.0,30.19,East,92,0.0,4.0,92,0.00,,,0.00,weatherlink.com 1.10,2013-10-10 09:16:00,
2013-10-10 05:31:00,57.4,54.0,30.19,NE,51,1.0,4.0,89,0.00,,,0.00,weatherlink.com 1.10,2013-10-10 09:31:00,
2013-10-10 05:46:00,57.6,54.0,30.19,East,91,0.0,2.0,87,0.00,,,0.00,weatherlink.com 1.10,2013-10-10 09:46:00,
2013-10-10 06:01:00,57.1,54.0,30.19,East,94,1.0,2.0,90,0.00,,,0.00,weatherlink.com 1.10,2013-10-10 10:01:00,
2013-10-10 06:16:00,56.4,54.0,30.19,ESE,113,2.0,3.0,92,0.00,,,0.00,weatherlink.com 1.10,2013-10-10 10:16:00,
2013-10-10 06:31:00,56.1,54.0,30.19,ESE,117,1.0,3.0,92,0.00,,,0.00,weatherlink.com 1.10,2013-10-10 10:31:00,
2013-10-10 06:46:00,56.0,54.0,30.20,East,89,2.0,3.0,91,0.00,,,0.00,weatherlink.com 1.10,2013-10-10 10:46:00,
2013-10-10 07:01:00,55.7,54.0,30.20,ESE,110,2.0,3.0,92,0.00,,,0.00,weatherlink.com 1.10,2013-10-10 11:01:00,
2013-10-10 07:16:00,55.5,53.0,30.20,East,89,2.0,2.0,92,0.00,,,0.00,weatherlink.com 1.10,2013-10-10 11:16:00,
2013-10-10 07:31:00,55.0,53.0,30.20,East,80,0.0,2.0,93,0.00,,,0.00,weatherlink.com 1.10,2013-10-10 11:31:00,
2013-10-10 07:46:00,54.6,52.0,30.20,East,96,0.0,1.0,92,0.00,,,0.00,weatherlink.com 1.10,2013-10-10 11:46:00,
2013-10-10 08:01:00,54.7,53.0,30.21,East,94,3.0,4.0,93,0.00,,,0.00,weatherlink.com 1.10,2013-10-10 12:01:00,
2013-10-10 08:16:00,55.3,53.0,30.21,East,96,4.0,6.0,91,0.00,,,0.00,weatherlink.com 1.10,2013-10-10 12:16:00,
2013-10-10 08:31:00,55.9,53.0,30.21,ENE,77,3.0,7.0,89,0.00,,,0.00,weatherlink.com 1.10,2013-10-10 12:31:00,
2013-10-10 08:46:00,56.3,53.0,30.21,East,86,4.0,8.0,87,0.00,,,0.00,weatherlink.com 1.10,2013-10-10 12:46:00,
2013-10-10 09:01:00,56.5,52.0,30.22,East,86,2.0,6.0,86,0.00,,,0.00,weatherlink.com 1.10,2013-10-10 13:01:00,
2013-10-10 09:16:00,57.5,51.0,30.22,East,97,5.0,7.0,78,0.00,,,0.00,weatherlink.com 1.10,2013-10-10 13:16:00,
2013-10-10 09:32:00,59.2,52.0,30.22,ESE,110,5.0,6.0,76,0.00,,,0.00,weatherlink.com 1.10,2013-10-10 13:32:00,
2013-10-10 09:46:00,58.9,51.0,30.22,ESE,109,3.0,5.0,76,0.00,,,0.00,weatherlink.com 1.10,2013-10-10 13:46:00,
2013-10-10 10:01:00,59.6,50.0,30.23,ESE,113,5.0,7.0,71,0.00,,,0.00,weatherlink.com 1.10,2013-10-10 14:01:00,
2013-10-10 10:16:00,61.8,50.0,30.23,East,91,2.0,3.0,66,0.00,,,0.00,weatherlink.com 1.10,2013-10-10 14:16:00,
2013-10-10 10:31:00,63.3,50.0,30.23,SE,136,1.0,5.0,63,0.00,,,0.00,weatherlink.com 1.10,2013-10-10 14:31:00,
2013-10-10 10:46:00,64.9,52.0,30.23,ESE,102,1.0,4.0,63,0.00,,,0.00,weatherlink.com 1.10,2013-10-10 14:46:00,
2013-10-10 11:02:00,66.2,53.0,30.23,East,87,2.0,4.0,62,0.00,,,0.00,weatherlink.com 1.10,2013-10-10 15:02:00,
2013-10-10 11:17:00,66.7,52.0,30.23,ENE,63,0.0,3.0,59,0.00,,,0.00,weatherlink.com 1.10,2013-10-10 15:17:00,
2013-10-10 11:32:00,67.9,52.0,30.23,WSW,245,0.0,1.0,57,0.00,,,0.00,weatherlink.com 1.10,2013-10-10 15:32:00,
2013-10-10 11:47:00,68.4,52.0,30.23,NE,44,0.0,3.0,56,0.00,,,0.00,weatherlink.com 1.10,2013-10-10 15:47:00,
2013-10-10 12:02:00,69.3,54.0,30.22,North,1,0.0,2.0,58,0.00,,,0.00,weatherlink.com 1.10,2013-10-10 16:02:00,
2013-10-10 12:17:00,70.2,53.0,30.22,NE,41,0.0,2.0,55,0.00,,,0.00,weatherlink.com 1.10,2013-10-10 16:17:00,
2013-10-10 12:32:00,70.6,54.0,30.21,NW,326,1.0,4.0,55,0.00,,,0.00,weatherlink.com 1.10,2013-10-10 16:32:00,
2013-10-10 12:47:00,71.0,54.0,30.21,SW,224,0.0,5.0,55,0.00,,,0.00,weatherlink.com 1.10,2013-10-10 16:47:00,
2013-10-10 13:02:00,71.1,54.0,30.20,NNW,327,3.0,5.0,55,0.00,,,0.00,weatherlink.com 1.10,2013-10-10 17:02:00,
2013-10-10 13:17:00,70.3,54.0,30.20,East,81,2.0,8.0,56,0.00,,,0.00,weatherlink.com 1.10,2013-10-10 17:17:00,
2013-10-10 13:32:00,73.0,54.0,30.19,WSW,242,0.0,5.0,52,0.00,,,0.00,weatherlink.com 1.10,2013-10-10 17:32:00,
2013-10-10 13:47:00,73.9,55.0,30.18,WSW,251,0.0,5.0,51,0.00,,,0.00,weatherlink.com 1.10,2013-10-10 17:47:00,
2013-10-10 14:02:00,72.0,53.0,30.18,NNE,33,1.0,11.0,51,0.00,,,0.00,weatherlink.com 1.10,2013-10-10 18:02:00,
2013-10-10 14:17:00,72.6,55.0,30.17,NNE,18,1.0,3.0,55,0.00,,,0.00,weatherlink.com 1.10,2013-10-10 18:17:00,
2013-10-10 14:32:00,71.9,53.0,30.16,NE,47,1.0,7.0,52,0.00,,,0.00,weatherlink.com 1.10,2013-10-10 18:32:00,
2013-10-10 14:47:00,72.4,51.0,30.16,North,359,2.0,6.0,48,0.00,,,0.00,weatherlink.com 1.10,2013-10-10 18:47:00,
2013-10-10 15:02:00,72.7,51.0,30.15,NE,46,2.0,5.0,47,0.00,,,0.00,weatherlink.com 1.10,2013-10-10 19:02:00,
2013-10-10 15:17:00,73.2,53.0,30.15,NNE,24,0.0,5.0,49,0.00,,,0.00,weatherlink.com 1.10,2013-10-10 19:17:00,
2013-10-10 15:32:00,73.5,52.0,30.15,North,1,2.0,8.0,48,0.00,,,0.00,weatherlink.com 1.10,2013-10-10 19:32:00,
2013-10-10 15:47:00,76.1,54.0,30.14,WNW,302,0.0,4.0,47,0.00,,,0.00,weatherlink.com 1.10,2013-10-10 19:47:00,
2013-10-10 16:02:00,75.4,53.0,30.14,NNE,15,1.0,4.0,45,0.00,,,0.00,weatherlink.com 1.10,2013-10-10 20:02:00,
2013-10-10 16:17:00,75.3,52.0,30.14,ENE,63,3.0,5.0,45,0.00,,,0.00,weatherlink.com 1.10,2013-10-10 20:17:00,
2013-10-10 16:32:00,74.3,52.0,30.13,North,8,4.0,12.0,45,0.00,,,0.00,weatherlink.com 1.10,2013-10-10 20:32:00,
2013-10-10 16:47:00,74.3,51.0,30.13,North,357,3.0,6.0,44,0.00,,,0.00,weatherlink.com 1.10,2013-10-10 20:47:00,
2013-10-10 17:02:00,74.6,52.0,30.13,NNW,330,0.0,5.0,46,0.00,,,0.00,weatherlink.com 1.10,2013-10-10 21:02:00,
2013-10-10 17:17:00,74.8,51.0,30.13,North,357,2.0,5.0,44,0.00,,,0.00,weatherlink.com 1.10,2013-10-10 21:17:00,
2013-10-10 17:32:00,74.3,50.0,30.13,NNW,338,1.0,7.0,43,0.00,,,0.00,weatherlink.com 1.10,2013-10-10 21:32:00,
2013-10-10 17:47:00,74.5,50.0,30.12,NNW,338,1.0,5.0,42,0.00,,,0.00,weatherlink.com 1.10,2013-10-10 21:47:00,
2013-10-10 18:03:00,73.7,50.0,30.13,NNE,18,2.0,5.0,43,0.00,,,0.00,weatherlink.com 1.10,2013-10-10 22:03:00,
2013-10-10 18:17:00,72.8,50.0,30.13,North,351,4.0,7.0,44,0.00,,,0.00,weatherlink.com 1.10,2013-10-10 22:17:00,
2013-10-10 18:32:00,72.3,50.0,30.13,NNW,345,1.0,4.0,46,0.00,,,0.00,weatherlink.com 1.10,2013-10-10 22:32:00,
2013-10-10 18:47:00,71.4,50.0,30.12,NNW,328,2.0,5.0,47,0.00,,,0.00,weatherlink.com 1.10,2013-10-10 22:47:00,
2013-10-10 19:02:00,70.1,49.0,30.12,North,351,3.0,4.0,48,0.00,,,0.00,weatherlink.com 1.10,2013-10-10 23:02:00,
2013-10-10 19:17:00,69.2,50.0,30.12,North,349,2.0,2.0,50,0.00,,,0.00,weatherlink.com 1.10,2013-10-10 23:17:00,
2013-10-10 19:32:00,68.4,50.0,30.12,North,351,3.0,5.0,53,0.00,,,0.00,weatherlink.com 1.10,2013-10-10 23:32:00,
2013-10-10 19:47:00,68.1,50.0,30.12,North,356,3.0,7.0,53,0.00,,,0.00,weatherlink.com 1.10,2013-10-10 23:47:00,
2013-10-10 20:02:00,67.7,50.0,30.12,NNE,30,3.0,8.0,54,0.00,,,0.00,weatherlink.com 1.10,2013-10-11 00:02:00,
2013-10-10 20:17:00,67.3,50.0,30.12,NNW,341,4.0,8.0,55,0.00,,,0.00,weatherlink.com 1.10,2013-10-11 00:17:00,
2013-10-10 20:32:00,66.7,51.0,30.12,NNW,347,3.0,7.0,57,0.00,,,0.00,weatherlink.com 1.10,2013-10-11 00:32:00,
2013-10-10 20:47:00,66.2,51.0,30.11,NNE,21,3.0,7.0,58,0.00,,,0.00,weatherlink.com 1.10,2013-10-11 00:47:00,
2013-10-10 21:02:00,65.8,51.0,30.11,North,8,4.0,7.0,59,0.00,,,0.00,weatherlink.com 1.10,2013-10-11 01:02:00,
2013-10-10 21:17:00,65.2,51.0,30.11,North,4,4.0,5.0,60,0.00,,,0.00,weatherlink.com 1.10,2013-10-11 01:17:00,
2013-10-10 21:32:00,64.8,51.0,30.11,North,360,2.0,6.0,61,0.00,,,0.00,weatherlink.com 1.10,2013-10-11 01:32:00,
2013-10-10 21:47:00,64.8,51.0,30.11,NNW,345,3.0,6.0,61,0.00,,,0.00,weatherlink.com 1.10,2013-10-11 01:47:00,
2013-10-10 22:02:00,64.5,51.0,30.12,North,354,4.0,7.0,61,0.00,,,0.00,weatherlink.com 1.10,2013-10-11 02:02:00,
2013-10-10 22:18:00,64.3,51.0,30.12,North,353,2.0,5.0,62,0.00,,,0.00,weatherlink.com 1.10,2013-10-11 02:18:00,
2013-10-10 22:33:00,63.8,51.0,30.12,NNW,343,2.0,4.0,63,0.00,,,0.00,weatherlink.com 1.10,2013-10-11 02:33:00,
2013-10-10 22:48:00,63.4,51.0,30.11,NNW,330,2.0,4.0,64,0.00,,,0.00,weatherlink.com 1.10,2013-10-11 02:48:00,
2013-10-10 23:03:00,63.4,51.0,30.11,North,353,3.0,5.0,64,0.00,,,0.00,weatherlink.com 1.10,2013-10-11 03:03:00,
2013-10-10 23:18:00,63.2,51.0,30.11,NNW,348,3.0,5.0,65,0.00,,,0.00,weatherlink.com 1.10,2013-10-11 03:18:00,
2013-10-10 23:33:00,62.8,51.0,30.11,North,6,3.0,5.0,66,0.00,,,0.00,weatherlink.com 1.10,2013-10-11 03:33:00,
2013-10-10 23:48:00,62.6,51.0,30.11,NNW,340,0.0,3.0,66,0.00,,,0.00,weatherlink.com 1.10,2013-10-11 03:48:00,